Time;durP1;ratioP1;P1;durP2;ratioP2;P2;SDS_P1;SDS_P2;PMS_P1;PMS_P2;Temp;Humidity;BMP_temperature;BMP_pressure;BME280_temperature;BME280_humidity;BME280_pressure;Samples;Min_cycle;Max_cycle;Signal;HPM_P1;HPM_P2
2021/03/16 00:02:21;;;;;;;24.45;11.23;;;;;;;1.04;97.36;95176.81;5009351;28;20030;-69
2021/03/16 00:04:47;;;;;;;45.60;20.00;;;;;;;1.10;96.87;95180.28;5009361;28;20053;-68
2021/03/16 00:07:13;;;;;;;13.35;9.38;;;;;;;1.10;97.46;95182.13;5009665;28;20037;-68
2021/03/16 00:09:38;;;;;;;56.17;23.10;;;;;;;1.12;97.52;95177.41;5008098;28;20479;-67
2021/03/16 00:12:04;;;;;;;38.65;16.80;;;;;;;1.18;97.00;95189.56;5009092;28;20042;-68
2021/03/16 00:14:30;;;;;;;66.18;24.98;;;;;;;1.25;97.21;95196.19;5009234;28;20041;-67
2021/03/16 00:16:55;;;;;;;73.93;29.77;;;;;;;1.49;96.78;95202.00;5008893;28;20117;-68
2021/03/16 00:19:21;;;;;;;57.03;24.30;;;;;;;1.38;96.55;95213.38;5009873;28;20121;-68
2021/03/16 00:21:47;;;;;;;69.82;27.95;;;;;;;1.39;97.11;95203.69;5007533;28;20038;-68
2021/03/16 00:24:13;;;;;;;54.38;22.33;;;;;;;1.43;96.87;95215.25;5009199;28;20038;-68
2021/03/16 00:26:38;;;;;;;53.10;23.23;;;;;;;1.29;97.03;95199.13;5008099;28;20080;-68
2021/03/16 00:29:04;;;;;;;61.67;25.63;;;;;;;1.35;96.84;95224.34;5008738;28;20129;-68
2021/03/16 00:31:29;;;;;;;57.55;24.20;;;;;;;1.36;97.12;95219.91;5007947;28;20518;-67
2021/03/16 00:33:55;;;;;;;40.60;16.17;;;;;;;1.45;96.50;95234.97;5011552;28;20030;-68
2021/03/16 00:36:20;;;;;;;79.60;33.05;;;;;;;1.66;95.83;95225.50;5009070;28;20041;-67
2021/03/16 00:38:46;;;;;;;52.00;20.98;;;;;;;1.51;96.08;95236.59;5008966;28;20061;-68
2021/03/16 00:41:11;;;;;;;64.13;25.13;;;;;;;1.49;95.65;95225.59;5008734;28;20042;-67
2021/03/16 00:43:37;;;;;;;51.83;22.27;;;;;;;1.35;96.65;95224.34;5008876;28;20087;-68
2021/03/16 00:46:02;;;;;;;56.17;22.40;;;;;;;1.49;96.05;95243.13;5010890;28;20041;-67
2021/03/16 00:48:28;;;;;;;40.67;18.45;;;;;;;1.51;96.13;95239.22;5008874;28;20046;-67
2021/03/16 00:50:54;;;;;;;26.48;11.50;;;;;;;1.38;96.62;95239.56;5008920;28;20033;-68
2021/03/16 00:53:19;;;;;;;26.17;11.00;;;;;;;1.32;96.20;95227.44;5008853;28;20121;-68
2021/03/16 00:55:45;;;;;;;29.00;13.82;;;;;;;1.45;96.24;95240.22;5007735;28;20124;-67
2021/03/16 00:58:10;;;;;;;31.45;13.27;;;;;;;1.44;95.80;95240.47;5009257;28;20050;-67
2021/03/16 01:00:35;;;;;;;53.70;22.60;;;;;;;1.61;95.69;95243.78;5008830;28;20034;-68
2021/03/16 01:03:01;;;;;;;57.28;22.33;;;;;;;1.68;95.37;95239.16;5008736;28;20041;-68
2021/03/16 01:05:26;;;;;;;62.50;23.05;;;;;;;1.86;94.35;95237.25;5008563;28;20111;-67
2021/03/16 01:07:52;;;;;;;38.72;16.92;;;;;;;1.77;93.94;95236.91;5007228;28;20037;-67
2021/03/16 01:10:19;;;;;;;57.65;22.13;;;;;;;1.80;94.04;95234.59;5010758;28;20485;-67
2021/03/16 01:12:45;;;;;;;15.15;9.02;;;;;;;1.60;94.16;95262.41;5008380;28;20451;-67
2021/03/16 01:15:11;;;;;;;25.65;12.38;;;;;;;1.60;94.56;95252.72;5008919;28;20041;-67
2021/03/16 01:17:37;;;;;;;41.85;17.73;;;;;;;1.69;94.09;95246.00;5008339;28;20042;-66
2021/03/16 01:20:13;;;;;;;37.78;16.77;;;;;;;1.67;94.23;95242.81;5008473;28;20511;-67
2021/03/16 01:22:39;;;;;;;36.92;20.52;;;;;;;1.65;94.54;95254.59;5006072;28;20037;-66
2021/03/16 01:25:05;;;;;;;24.85;12.18;;;;;;;1.58;94.70;95240.88;5022176;28;20025;-67
2021/03/16 01:27:30;;;;;;;42.72;20.40;;;;;;;1.74;93.96;95255.72;5027664;28;20037;-67
2021/03/16 01:29:55;;;;;;;31.92;17.45;;;;;;;1.57;94.25;95247.94;5028147;28;20060;-67
2021/03/16 01:32:21;;;;;;;40.22;19.15;;;;;;;1.78;93.93;95252.38;5027977;28;20387;-67
2021/03/16 01:34:46;;;;;;;32.70;15.45;;;;;;;1.68;94.16;95254.09;5028119;28;20128;-67
2021/03/16 01:37:11;;;;;;;41.17;19.73;;;;;;;1.68;94.26;95259.34;5031056;28;20025;-69
2021/03/16 01:39:37;;;;;;;34.53;17.33;;;;;;;1.63;94.42;95252.19;5031704;28;20052;-66
2021/03/16 01:42:02;;;;;;;39.90;20.13;;;;;;;1.80;94.06;95267.88;5031650;28;20033;-67
2021/03/16 01:44:28;;;;;;;38.65;19.02;;;;;;;1.67;93.63;95257.75;5031777;28;20117;-68
2021/03/16 01:46:53;;;;;;;23.35;12.40;;;;;;;1.54;93.60;95248.44;5031459;28;20484;-68
2021/03/16 01:49:18;;;;;;;40.03;18.75;;;;;;;1.59;94.07;95250.31;5033520;28;20034;-67
2021/03/16 01:51:44;;;;;;;35.50;17.45;;;;;;;1.64;94.80;95263.47;5031335;28;20076;-67
2021/03/16 01:54:10;;;;;;;25.75;13.10;;;;;;;1.54;94.62;95270.22;5025113;28;20104;-66
2021/03/16 01:56:39;;;;;;;21.48;11.43;;;;;;;1.55;94.12;95261.31;5031229;28;20068;-67
2021/03/16 01:59:06;;;;;;;17.88;11.35;;;;;;;1.46;94.29;95268.00;5029289;28;20075;-67
2021/03/16 02:01:31;;;;;;;20.40;11.05;;;;;;;1.53;94.23;95271.22;5030521;28;20087;-68
2021/03/16 02:03:56;;;;;;;25.58;14.02;;;;;;;1.58;94.41;95270.50;5032932;28;20053;-68
2021/03/16 02:06:46;;;;;;;30.27;16.65;;;;;;;1.72;93.03;95258.59;5030913;28;20053;-68
2021/03/16 02:09:23;;;;;;;17.95;10.00;;;;;;;1.48;93.96;95265.91;5031089;28;20037;-68
2021/03/16 02:11:57;;;;;;;37.28;18.98;;;;;;;1.75;93.38;95260.75;5030616;28;20059;-68
2021/03/16 02:14:31;;;;;;;19.83;12.57;;;;;;;1.55;94.17;95277.03;5030743;28;20052;-69
2021/03/16 02:17:07;;;;;;;23.73;14.95;;;;;;;1.55;94.13;95273.63;5030765;28;20037;-68
2021/03/16 02:19:56;;;;;;;23.75;15.05;;;;;;;1.68;93.46;95272.44;5028789;28;20465;-70
2021/03/16 02:22:25;;;;;;;24.73;15.35;;;;;;;1.68;93.47;95275.06;5031091;28;20033;-68
2021/03/16 02:25:09;;;;;;;22.70;14.32;;;;;;;1.67;92.96;95287.38;5031270;28;20256;-68
2021/03/16 02:27:48;;;;;;;19.27;11.85;;;;;;;1.72;93.65;95276.97;5031059;28;20156;-68
2021/03/16 02:30:16;;;;;;;12.07;8.48;;;;;;;1.45;93.68;95268.25;5031083;28;20037;-69
2021/03/16 02:32:44;;;;;;;26.10;15.27;;;;;;;1.78;93.13;95272.56;5030769;28;20052;-69
2021/03/16 02:35:10;;;;;;;23.73;15.98;;;;;;;1.92;92.46;95281.66;5030612;28;20064;-68
2021/03/16 02:37:37;;;;;;;17.80;12.25;;;;;;;1.65;92.56;95283.44;5029800;28;20025;-69
2021/03/16 02:40:05;;;;;;;23.45;16.00;;;;;;;1.79;92.33;95288.06;5030493;28;20064;-68
2021/03/16 02:42:35;;;;;;;23.90;15.93;;;;;;;2.00;91.60;95289.09;5029979;28;20038;-68
2021/03/16 02:45:04;;;;;;;22.02;13.70;;;;;;;1.88;91.40;95282.38;5030297;28;20121;-69
2021/03/16 02:47:29;;;;;;;27.85;13.68;;;;;;;1.78;91.51;95286.47;5029542;28;20068;-69
2021/03/16 02:49:56;;;;;;;18.83;13.43;;;;;;;1.59;92.21;95289.63;5029385;28;20069;-69
2021/03/16 02:52:23;;;;;;;16.95;10.57;;;;;;;1.66;92.56;95295.50;5030859;28;20030;-69
2021/03/16 02:54:51;;;;;;;18.25;12.93;;;;;;;1.74;92.05;95293.25;5030168;28;20038;-68
2021/03/16 02:57:17;;;;;;;28.80;15.38;;;;;;;1.75;92.30;95301.91;5029899;28;20403;-70
2021/03/16 02:59:44;;;;;;;20.02;13.00;;;;;;;1.80;92.55;95288.88;5029667;28;20053;-69
2021/03/16 03:02:11;;;;;;;15.93;9.07;;;;;;;1.59;92.14;95289.63;5028295;28;20045;-68
2021/03/16 03:04:38;;;;;;;16.65;12.05;;;;;;;1.78;92.63;95306.66;5030174;28;20064;-68
2021/03/16 03:07:06;;;;;;;16.13;12.82;;;;;;;1.95;91.33;95312.66;5030850;28;20038;-68
2021/03/16 03:09:34;;;;;;;13.43;9.15;;;;;;;1.77;91.13;95295.38;5029639;28;20044;-68
2021/03/16 03:12:00;;;;;;;13.75;9.82;;;;;;;1.78;91.35;95309.28;5030026;28;20042;-74
2021/03/16 03:14:26;;;;;;;16.20;13.15;;;;;;;1.87;91.28;95299.94;5045473;28;20548;-68
2021/03/16 03:16:53;;;;;;;19.85;11.82;;;;;;;1.83;90.44;95309.34;5028700;28;20033;-68
2021/03/16 03:19:19;;;;;;;21.08;12.52;;;;;;;1.73;91.11;95310.00;5030917;28;20032;-70
2021/03/16 03:21:52;;;;;;;23.38;11.93;;;;;;;1.93;90.73;95309.47;5029800;28;20041;-69
2021/03/16 03:24:23;;;;;;;17.38;10.45;;;;;;;1.78;91.32;95309.28;5030025;28;20045;-69
2021/03/16 03:27:06;;;;;;;17.88;11.88;;;;;;;1.80;91.15;95315.09;5028051;28;20034;-68
2021/03/16 03:29:33;;;;;;;13.15;9.00;;;;;;;1.77;90.79;95326.84;5030249;28;20044;-68
2021/03/16 03:31:59;;;;;;;16.20;13.02;;;;;;;1.78;91.33;95317.16;5029878;28;20033;-69
2021/03/16 03:34:26;;;;;;;16.70;9.77;;;;;;;1.57;91.66;95313.47;5031858;28;20021;-69
2021/03/16 03:36:53;;;;;;;13.13;9.45;;;;;;;1.60;91.74;95326.13;5028653;28;20045;-69
2021/03/16 03:39:21;;;;;;;19.15;11.48;;;;;;;1.89;90.19;95318.84;5029172;28;20124;-69
2021/03/16 03:41:49;;;;;;;13.38;9.30;;;;;;;1.69;91.15;95321.22;5028248;28;20127;-70
2021/03/16 03:44:16;;;;;;;13.18;9.45;;;;;;;1.44;92.21;95333.00;5029748;28;20408;-69
2021/03/16 03:46:43;;;;;;;7.57;6.07;;;;;;;1.10;94.45;95326.19;5029408;28;20103;-69
2021/03/16 03:49:10;;;;;;;19.05;12.52;;;;;;;1.24;94.92;95316.97;5031466;28;20029;-69
2021/03/16 03:51:38;;;;;;;16.50;10.85;;;;;;;1.13;95.35;95338.81;5029151;28;20049;-70
2021/03/16 03:54:05;;;;;;;16.45;12.07;;;;;;;0.98;95.84;95334.94;5029569;28;20396;-70
2021/03/16 03:56:33;;;;;;;15.20;9.68;;;;;;;0.84;96.59;95354.59;5029488;28;20510;-69
2021/03/16 03:59:00;;;;;;;17.48;10.98;;;;;;;0.78;97.21;95345.88;5028956;28;20126;-70
2021/03/16 04:01:27;;;;;;;15.48;10.55;;;;;;;0.82;97.19;95359.31;5030630;28;20037;-63
2021/03/16 04:03:52;;;;;;;22.30;13.05;;;;;;;0.85;96.75;95345.72;5030217;28;20411;-71
2021/03/16 04:06:21;;;;;;;21.20;14.00;;;;;;;1.03;95.23;95355.97;5029098;28;20041;-71
2021/03/16 04:08:46;;;;;;;22.48;12.00;;;;;;;1.00;95.03;95348.56;5029032;28;20083;-70
2021/03/16 04:11:13;;;;;;;20.13;9.73;;;;;;;1.21;93.99;95370.66;5028961;28;20049;-71
2021/03/16 04:13:39;;;;;;;15.95;8.15;;;;;;;1.13;93.30;95368.44;5029070;28;20030;-72
2021/03/16 04:16:05;;;;;;;15.00;8.25;;;;;;;1.07;93.70;95363.34;5045800;28;20091;-70
2021/03/16 04:18:31;;;;;;;20.65;11.77;;;;;;;1.17;93.52;95347.78;5028833;28;20037;-69
2021/03/16 04:20:56;;;;;;;11.52;8.57;;;;;;;1.13;93.40;95370.28;5028849;28;20080;-69
2021/03/16 04:23:23;;;;;;;20.08;12.85;;;;;;;1.27;94.05;95372.31;5028692;28;20081;-69
2021/03/16 04:25:48;;;;;;;23.15;12.15;;;;;;;1.22;93.39;95355.72;5028807;28;20036;-70
2021/03/16 04:28:14;;;;;;;26.90;13.55;;;;;;;1.19;94.17;95377.16;5029308;28;20033;-69
2021/03/16 04:30:39;;;;;;;14.05;9.45;;;;;;;1.20;93.17;95370.88;5028659;28;20057;-70
2021/03/16 04:33:04;;;;;;;23.67;11.77;;;;;;;1.24;93.81;95385.09;5028343;28;20407;-70
2021/03/16 04:35:30;;;;;;;17.55;8.98;;;;;;;1.23;92.99;95386.16;5027492;28;20029;-70
2021/03/16 04:37:55;;;;;;;12.63;8.38;;;;;;;1.15;94.15;95376.84;5028661;28;20501;-70
2021/03/16 04:40:21;;;;;;;15.82;9.90;;;;;;;1.23;93.33;95376.47;5030721;28;20032;-70
2021/03/16 04:42:47;;;;;;;14.82;8.85;;;;;;;1.21;93.06;95386.38;5043631;28;20029;-70
2021/03/16 04:45:13;;;;;;;21.33;12.75;;;;;;;1.43;93.34;95386.41;5028455;28;20056;-70
2021/03/16 04:47:38;;;;;;;20.73;10.90;;;;;;;1.37;92.88;95379.53;5028092;28;20029;-70
2021/03/16 04:50:04;;;;;;;20.83;9.63;;;;;;;1.39;92.87;95392.41;5028506;28;20483;-70
2021/03/16 04:52:29;;;;;;;16.88;9.52;;;;;;;1.39;92.91;95393.19;5028273;28;20030;-70
2021/03/16 04:54:55;;;;;;;20.58;8.68;;;;;;;0.87;93.33;95335.81;5029136;28;20025;-70
2021/03/16 04:57:20;;;;;;;19.45;9.63;;;;;;;1.29;92.94;95382.56;5026805;28;20431;-70
2021/03/16 04:59:45;;;;;;;13.73;9.18;;;;;;;1.20;92.43;95378.75;5028512;28;20067;-70
2021/03/16 05:02:11;;;;;;;19.35;9.20;;;;;;;1.21;92.88;95388.19;5026879;28;20176;-70
2021/03/16 05:04:36;;;;;;;18.17;10.30;;;;;;;1.34;93.19;95400.19;5028214;28;20031;-69
2021/03/16 05:07:02;;;;;;;18.95;10.25;;;;;;;1.39;92.45;95401.06;5028867;28;20048;-70
2021/03/16 05:09:27;;;;;;;17.90;8.18;;;;;;;1.36;92.48;95409.38;5028622;28;20500;-70
2021/03/16 05:11:53;;;;;;;8.45;5.03;;;;;;;1.14;92.98;95408.53;5028250;28;20038;-70
2021/03/16 05:14:18;;;;;;;14.70;9.88;;;;;;;1.41;92.85;95412.09;5013558;28;20562;-74
2021/03/16 05:16:45;;;;;;;18.25;9.50;;;;;;;1.41;92.17;95414.72;5012650;28;20034;-81
2021/03/16 05:19:10;;;;;;;14.35;7.18;;;;;;;1.22;93.08;95419.38;5016008;28;20365;-82
2021/03/16 05:21:36;;;;;;;9.43;5.80;;;;;;;1.31;93.05;95425.03;5012796;28;20041;-68
2021/03/16 05:24:01;;;;;;;21.35;8.43;;;;;;;1.44;92.27;95427.34;5013711;28;20042;-69
2021/03/16 05:26:26;;;;;;;15.48;9.60;;;;;;;1.32;92.83;95412.72;5012381;28;20030;-69
2021/03/16 05:28:52;;;;;;;16.73;8.45;;;;;;;1.19;93.10;95421.72;5012175;28;20476;-69
2021/03/16 05:31:17;;;;;;;14.35;8.35;;;;;;;1.22;92.24;95427.25;5013910;28;20681;-69
2021/03/16 05:33:43;;;;;;;12.02;7.68;;;;;;;1.36;92.24;95435.59;5012305;28;20042;-69
2021/03/16 05:36:08;;;;;;;22.67;9.75;;;;;;;1.34;92.42;95435.06;5012256;28;20041;-69
2021/03/16 05:38:34;;;;;;;15.32;7.85;;;;;;;1.31;91.88;95419.78;5011961;28;20040;-70
2021/03/16 05:41:00;;;;;;;17.88;8.98;;;;;;;1.36;92.45;95435.59;5012187;28;20046;-69
2021/03/16 05:43:25;;;;;;;14.32;8.38;;;;;;;1.39;92.03;95434.34;5013981;28;20052;-69
2021/03/16 05:45:55;;;;;;;19.50;7.53;;;;;;;1.27;92.33;95440.44;5011967;28;20062;-69
2021/03/16 05:48:22;;;;;;;15.48;7.38;;;;;;;1.37;92.42;95445.03;5011819;28;20491;-69
2021/03/16 05:50:48;;;;;;;7.20;5.35;;;;;;;1.25;91.30;95455.63;5011936;28;20443;-69
2021/03/16 05:53:13;;;;;;;12.27;6.03;;;;;;;1.09;91.96;95445.91;5011785;28;20077;-71
2021/03/16 05:55:39;;;;;;;15.60;6.47;;;;;;;1.24;91.78;95458.47;5010653;28;20476;-70
2021/03/16 05:58:04;;;;;;;14.50;7.78;;;;;;;1.28;92.59;95463.00;5013582;28;20029;-70
2021/03/16 06:00:30;;;;;;;10.65;6.75;;;;;;;1.21;92.72;95451.06;5011879;28;20038;-70
2021/03/16 06:02:55;;;;;;;14.65;7.15;;;;;;;1.27;91.86;95457.97;5011558;28;20396;-70
2021/03/16 06:05:20;;;;;;;15.60;9.57;;;;;;;1.46;91.97;95459.34;5011759;28;20112;-70
2021/03/16 06:07:50;;;;;;;12.73;6.03;;;;;;;1.19;92.47;95479.34;5010191;28;20034;-70
2021/03/16 06:10:20;;;;;;;14.50;8.63;;;;;;;1.43;91.57;95478.16;5013632;28;20395;-70
2021/03/16 06:12:47;;;;;;;11.20;6.32;;;;;;;1.39;91.65;95477.06;5009921;28;20037;-70
2021/03/16 06:15:14;;;;;;;16.90;8.75;;;;;;;1.53;90.87;95467.84;5011474;28;20116;-70
2021/03/16 06:17:49;;;;;;;9.35;6.50;;;;;;;1.20;92.60;95467.84;5011280;28;20045;-69
2021/03/16 06:20:35;;;;;;;11.88;7.07;;;;;;;1.32;91.84;95483.47;5011238;28;20030;-69
2021/03/16 06:23:11;;;;;;;11.07;6.47;;;;;;;1.25;92.12;95487.06;5011154;28;20076;-68
2021/03/16 06:25:39;;;;;;;12.35;7.32;;;;;;;1.29;91.99;95490.00;5011167;28;20026;-70
2021/03/16 06:28:06;;;;;;;19.48;8.02;;;;;;;1.37;91.45;95478.31;5013193;28;20073;-69
2021/03/16 06:30:33;;;;;;;13.43;7.38;;;;;;;1.52;90.77;95492.47;5011258;28;20365;-69
2021/03/16 06:32:59;;;;;;;11.25;7.20;;;;;;;1.37;91.19;95499.28;5010911;28;20038;-69
2021/03/16 06:35:25;;;;;;;12.95;7.32;;;;;;;1.37;91.26;95512.41;5011221;28;20032;-69
2021/03/16 06:38:19;;;;;;;12.95;6.13;;;;;;;1.32;91.72;95517.56;5010835;28;20038;-69
2021/03/16 06:40:44;;;;;;;15.30;8.80;;;;;;;1.28;92.38;95512.81;5006239;28;20456;-70
2021/03/16 06:43:11;;;;;;;17.05;9.20;;;;;;;1.33;92.31;95517.31;5011354;28;20108;-69
2021/03/16 06:45:40;;;;;;;21.25;9.40;;;;;;;1.20;93.26;95510.56;5009666;28;20034;-69
2021/03/16 06:48:22;;;;;;;17.73;9.77;;;;;;;0.94;94.75;95516.38;5011444;28;20038;-69
2021/03/16 06:50:50;;;;;;;19.42;10.55;;;;;;;1.00;94.33;95531.94;5011159;28;20484;-68
2021/03/16 06:53:21;;;;;;;34.85;11.20;;;;;;;1.13;94.08;95536.13;5010168;28;20100;-68
2021/03/16 06:55:57;;;;;;;15.18;8.10;;;;;;;0.96;94.62;95543.91;5011652;28;20044;-68
2021/03/16 06:58:27;;;;;;;28.65;11.50;;;;;;;1.13;94.24;95548.41;5013152;28;20033;-68
2021/03/16 07:01:13;;;;;;;19.13;9.30;;;;;;;1.18;94.43;95556.38;5012069;28;20038;-68
2021/03/16 07:03:39;;;;;;;17.85;8.60;;;;;;;0.94;96.27;95548.59;5011382;28;20085;-67
2021/03/16 07:06:09;;;;;;;14.85;7.82;;;;;;;0.33;97.68;95531.66;5011191;28;20440;-67
2021/03/16 07:08:35;;;;;;;26.55;10.10;;;;;;;0.70;97.51;95558.31;5010016;28;20038;-68
2021/03/16 07:11:03;;;;;;;25.20;12.60;;;;;;;0.90;96.64;95567.63;5011277;28;20488;-68
2021/03/16 07:13:32;;;;;;;16.75;7.65;;;;;;;0.77;96.91;95559.00;5009998;28;20022;-68
2021/03/16 07:15:57;;;;;;;29.58;11.32;;;;;;;0.91;96.29;95563.97;5005905;28;20018;-68
2021/03/16 07:18:23;;;;;;;12.90;6.45;;;;;;;0.86;96.17;95572.50;4991591;28;20037;-69
2021/03/16 07:20:57;;;;;;;11.02;6.22;;;;;;;1.04;95.75;95568.94;4991435;28;20521;-69
2021/03/16 07:23:25;;;;;;;23.13;9.93;;;;;;;1.25;94.61;95576.16;4991499;28;20050;-68
2021/03/16 07:25:52;;;;;;;28.67;11.43;;;;;;;1.62;92.97;95578.38;4991494;28;20042;-69
2021/03/16 07:28:18;;;;;;;32.08;12.38;;;;;;;1.58;94.25;95577.25;4993404;28;20073;-69
2021/03/16 07:30:44;;;;;;;20.05;10.18;;;;;;;1.38;94.04;95585.53;4991604;28;20049;-69
2021/03/16 07:33:13;;;;;;;30.75;10.68;;;;;;;1.16;95.35;95571.53;4991472;28;20038;-69
2021/03/16 07:35:39;;;;;;;34.90;14.65;;;;;;;1.58;93.91;95584.31;4990993;28;20132;-69
2021/03/16 07:38:04;;;;;;;30.48;11.93;;;;;;;1.28;94.01;95577.53;4991118;28;20077;-67
2021/03/16 07:40:30;;;;;;;16.50;7.97;;;;;;;1.43;94.16;95584.84;4990771;28;20042;-69
2021/03/16 07:42:55;;;;;;;26.52;12.57;;;;;;;1.62;93.72;95585.44;4993027;28;20033;-68
2021/03/16 07:45:30;;;;;;;12.20;6.95;;;;;;;1.39;94.03;95589.78;5006099;28;20050;-74
2021/03/16 07:47:56;;;;;;;15.23;8.35;;;;;;;1.40;93.33;95591.38;4990243;28;20560;-74
2021/03/16 07:50:28;;;;;;;20.48;9.07;;;;;;;1.45;93.74;95601.16;4991044;28;20117;-79
2021/03/16 07:52:54;;;;;;;14.13;6.05;;;;;;;1.26;94.11;95595.28;4991194;28;20043;-70
2021/03/16 07:55:29;;;;;;;15.20;7.90;;;;;;;1.40;93.08;95586.13;4991731;28;20034;-69
2021/03/16 07:58:12;;;;;;;7.32;4.55;;;;;;;1.35;93.62;95606.19;4991402;28;20048;-69
2021/03/16 08:00:38;;;;;;;22.40;11.65;;;;;;;1.91;92.72;95605.34;4990972;28;20133;-69
2021/03/16 08:03:06;;;;;;;9.90;5.30;;;;;;;1.49;91.20;95603.06;4990523;28;20121;-69
2021/03/16 08:05:46;;;;;;;8.48;5.15;;;;;;;1.51;92.40;95618.56;4990885;28;20393;-69
2021/03/16 08:08:21;;;;;;;25.15;9.73;;;;;;;1.68;91.74;95616.75;4990810;28;20439;-69
2021/03/16 08:10:47;;;;;;;15.13;8.48;;;;;;;1.64;92.53;95625.31;4990565;28;20047;-68
2021/03/16 08:13:19;;;;;;;12.77;6.38;;;;;;;1.59;92.73;95622.59;4992591;28;20030;-69
2021/03/16 08:15:46;;;;;;;23.17;10.60;;;;;;;1.84;92.38;95625.66;4990771;28;20507;-68
2021/03/16 08:18:13;;;;;;;17.75;7.63;;;;;;;2.26;90.21;95612.19;4990660;28;20039;-69
2021/03/16 08:20:39;;;;;;;12.55;6.28;;;;;;;1.49;90.62;95595.19;4990256;28;20026;-69
2021/03/16 08:23:10;;;;;;;13.32;8.07;;;;;;;1.96;90.21;95636.91;4990375;28;20417;-70
2021/03/16 08:25:36;;;;;;;16.75;7.97;;;;;;;2.00;90.26;95632.78;4990581;28;20488;-70
2021/03/16 08:28:07;;;;;;;18.42;8.60;;;;;;;2.39;88.90;95629.44;4990997;28;20029;-69
2021/03/16 08:30:36;;;;;;;15.60;7.65;;;;;;;2.43;88.10;95630.56;4990572;28;20114;-69
2021/03/16 08:33:15;;;;;;;13.45;6.68;;;;;;;2.38;88.27;95641.78;4990439;28;20047;-70
2021/03/16 08:35:48;;;;;;;11.40;5.35;;;;;;;2.26;87.64;95633.19;4990617;28;20038;-76
2021/03/16 08:38:26;;;;;;;17.70;7.60;;;;;;;2.58;87.50;95644.69;4989229;28;20177;-69
2021/03/16 08:41:10;;;;;;;9.82;5.90;;;;;;;2.72;87.04;95657.50;4990854;28;20034;-69
2021/03/16 08:43:37;;;;;;;14.90;6.18;;;;;;;2.60;86.08;95653.13;4990474;28;20033;-71
2021/03/16 08:46:02;;;;;;;10.32;4.55;;;;;;;2.25;87.39;95673.56;4991756;28;20034;-72
2021/03/16 08:48:29;;;;;;;11.93;5.95;;;;;;;2.42;88.04;95640.25;4989977;28;20400;-68
2021/03/16 08:50:55;;;;;;;10.23;5.53;;;;;;;3.06;84.53;95655.56;5005359;28;20138;-67
2021/03/16 08:53:20;;;;;;;9.48;5.70;;;;;;;3.15;85.25;95655.97;4990455;28;20126;-71
2021/03/16 08:55:51;;;;;;;11.35;5.00;;;;;;;3.02;83.85;95655.28;4990764;28;20030;-70
2021/03/16 08:58:17;;;;;;;11.13;4.18;;;;;;;2.99;83.77;95652.34;4992114;28;20026;-72
2021/03/16 09:00:43;;;;;;;7.80;3.97;;;;;;;2.77;84.67;95658.38;4990392;28;20523;-67
2021/03/16 09:03:09;;;;;;;9.48;4.72;;;;;;;3.29;82.65;95646.69;4989929;28;20042;-67
2021/03/16 09:05:34;;;;;;;5.88;2.72;;;;;;;2.87;83.74;95660.34;4990066;28;20396;-67
2021/03/16 09:08:00;;;;;;;9.45;4.20;;;;;;;2.89;84.24;95679.28;4990040;28;20124;-67
2021/03/16 09:10:26;;;;;;;13.20;5.13;;;;;;;3.18;84.59;95669.41;5005237;28;20022;-63
2021/03/16 09:12:53;;;;;;;6.10;2.67;;;;;;;2.31;84.77;95685.78;4991771;28;20038;-67
2021/03/16 09:15:27;;;;;;;9.75;3.95;;;;;;;1.79;86.58;95676.25;4988549;28;20053;-66
2021/03/16 09:17:55;;;;;;;13.55;5.30;;;;;;;1.84;88.24;95680.75;4989977;28;20045;-65
2021/03/16 09:20:36;;;;;;;12.95;6.07;;;;;;;1.66;90.17;95673.09;4989583;28;20404;-67
2021/03/16 09:23:07;;;;;;;19.75;7.18;;;;;;;2.02;89.45;95670.06;4989811;28;20043;-65
2021/03/16 09:25:36;;;;;;;11.15;5.13;;;;;;;1.65;90.72;95685.41;4989912;28;20034;-65
2021/03/16 09:28:04;;;;;;;17.08;6.82;;;;;;;1.64;91.23;95672.53;4991668;28;20018;-67
2021/03/16 09:30:51;;;;;;;16.42;6.32;;;;;;;1.97;90.50;95677.06;4988919;28;20400;-64
2021/03/16 09:33:20;;;;;;;9.95;5.30;;;;;;;1.80;89.86;95684.91;4989720;28;20042;-64
2021/03/16 09:36:02;;;;;;;14.27;6.40;;;;;;;2.05;89.52;95685.34;4989980;28;20042;-64
2021/03/16 09:38:28;;;;;;;32.00;9.85;;;;;;;2.16;88.98;95691.56;4989785;28;20034;-63
2021/03/16 09:40:54;;;;;;;38.65;14.48;;;;;;;2.70;88.96;95683.19;4989685;28;20105;-64
2021/03/16 09:43:22;;;;;;;22.33;10.73;;;;;;;2.26;88.22;95683.06;4991898;28;20026;-65
2021/03/16 09:46:04;;;;;;;11.98;5.50;;;;;;;2.18;87.62;95689.50;4989836;28;20102;-65
2021/03/16 09:48:30;;;;;;;8.10;4.30;;;;;;;2.18;86.89;95694.75;4989699;28;20125;-65
2021/03/16 09:50:59;;;;;;;18.67;6.95;;;;;;;2.33;85.75;95694.19;4989539;28;20035;-66
2021/03/16 09:53:25;;;;;;;17.98;8.98;;;;;;;2.50;87.31;95700.22;4989641;28;20046;-66
2021/03/16 09:56:01;;;;;;;17.55;7.25;;;;;;;2.47;85.56;95700.72;4989790;28;20049;-66
2021/03/16 09:58:28;;;;;;;8.23;5.47;;;;;;;2.32;87.66;95703.13;4991259;28;20387;-65
2021/03/16 10:00:54;;;;;;;9.98;5.50;;;;;;;2.27;84.62;95700.41;4995255;28;20021;-66
2021/03/16 10:03:20;;;;;;;21.42;9.07;;;;;;;2.54;86.55;95692.69;4992993;28;20038;-65
2021/03/16 10:05:47;;;;;;;9.55;3.83;;;;;;;2.13;85.70;95707.78;4993171;28;20042;-65
2021/03/16 10:08:26;;;;;;;15.10;4.25;;;;;;;2.04;86.19;95709.97;4992896;28;20037;-67
2021/03/16 10:10:52;;;;;;;16.85;8.48;;;;;;;2.30;86.38;95697.28;4993090;28;20042;-66
2021/03/16 10:13:32;;;;;;;14.77;5.68;;;;;;;2.18;85.93;95712.31;4994836;28;20026;-65
2021/03/16 10:16:06;;;;;;;12.15;3.83;;;;;;;2.18;83.17;95712.31;4993497;28;20049;-66
2021/03/16 10:18:38;;;;;;;14.18;6.35;;;;;;;2.49;84.03;95709.16;4992727;28;20126;-66
2021/03/16 10:21:04;;;;;;;15.45;7.05;;;;;;;2.86;83.67;95713.91;4992479;28;20539;-68
2021/03/16 10:23:30;;;;;;;18.83;7.72;;;;;;;3.21;81.53;95665.50;4992573;28;20121;-75
2021/03/16 10:25:59;;;;;;;12.73;5.55;;;;;;;2.83;79.76;95702.06;4992184;28;20030;-76
2021/03/16 10:28:36;;;;;;;14.95;6.20;;;;;;;2.89;82.14;95700.31;4994999;28;20539;-72
2021/03/16 10:31:15;;;;;;;11.90;5.03;;;;;;;2.95;81.38;95691.44;4993714;28;20560;-72
2021/03/16 10:33:41;;;;;;;12.05;4.97;;;;;;;3.34;81.10;95688.81;4993301;28;20062;-74
2021/03/16 10:36:08;;;;;;;8.30;3.95;;;;;;;3.32;79.83;95696.13;4992665;28;20038;-70
2021/03/16 10:38:33;;;;;;;7.35;3.72;;;;;;;3.33;78.95;95695.91;4992532;28;20042;-71
2021/03/16 10:40:59;;;;;;;7.95;3.80;;;;;;;3.38;78.75;95713.56;4992688;28;20049;-72
2021/03/16 10:43:24;;;;;;;5.95;3.10;;;;;;;3.03;77.18;95687.63;4994308;28;20022;-72
2021/03/16 10:45:53;;;;;;;7.20;3.42;;;;;;;3.36;78.21;95700.66;5007208;28;20030;-72
2021/03/16 10:48:18;;;;;;;5.65;3.35;;;;;;;3.50;78.49;95693.19;4992210;28;20129;-71
2021/03/16 10:50:44;;;;;;;5.18;2.95;;;;;;;3.39;76.88;95689.66;4991810;28;20129;-71
2021/03/16 10:53:09;;;;;;;6.35;3.08;;;;;;;3.58;77.88;95684.06;4992319;28;20058;-71
2021/03/16 10:55:34;;;;;;;8.45;2.97;;;;;;;3.94;76.28;95672.09;4989674;28;20054;-73
2021/03/16 10:58:00;;;;;;;5.65;3.10;;;;;;;4.39;74.88;95691.97;4993958;28;20485;-69
2021/03/16 11:00:25;;;;;;;5.80;2.70;;;;;;;3.88;73.28;95680.97;4992500;28;20129;-69
2021/03/16 11:02:51;;;;;;;4.88;2.60;;;;;;;4.61;73.81;95689.28;4991852;28;20038;-69
2021/03/16 11:05:16;;;;;;;4.22;2.00;;;;;;;3.98;72.78;95702.13;4992216;28;20039;-69
2021/03/16 11:07:42;;;;;;;6.05;1.80;;;;;;;3.81;73.35;95696.97;4991907;28;20038;-71
2021/03/16 11:10:07;;;;;;;7.50;2.67;;;;;;;4.26;72.10;95671.34;4993201;28;20037;-69
2021/03/16 11:12:33;;;;;;;7.32;2.10;;;;;;;3.97;71.49;95679.50;4989826;28;20050;-69
2021/03/16 11:14:58;;;;;;;5.05;1.95;;;;;;;3.93;72.27;95688.91;4991992;28;20104;-70
2021/03/16 11:17:24;;;;;;;7.63;2.55;;;;;;;4.50;69.12;95692.84;4991555;28;20566;-70
2021/03/16 11:19:50;;;;;;;4.20;1.73;;;;;;;3.73;70.38;95683.44;4991387;28;20565;-71
2021/03/16 11:22:16;;;;;;;8.07;2.47;;;;;;;4.13;70.94;95678.59;4993101;28;20477;-68
2021/03/16 11:24:41;;;;;;;4.63;2.20;;;;;;;4.24;70.43;95692.63;4991788;28;20137;-67
2021/03/16 11:27:06;;;;;;;5.10;1.73;;;;;;;4.41;68.84;95685.44;4991534;28;20081;-68
2021/03/16 11:29:32;;;;;;;6.55;2.30;;;;;;;4.09;65.43;95688.03;4991767;28;20038;-69
2021/03/16 11:31:57;;;;;;;5.75;1.50;;;;;;;3.77;66.05;95708.22;4990189;28;20026;-69
2021/03/16 11:34:22;;;;;;;4.07;1.85;;;;;;;4.02;65.90;95729.56;4993377;28;20052;-68
2021/03/16 11:36:48;;;;;;;4.47;1.60;;;;;;;3.92;66.67;95695.22;5006484;28;20104;-69